Milton, PA (17847)

11:58 AM EDT del 25 Aprile 2015 (GMT -0400)
Windsor at Lewisburg | | Change Station
CLOSE
Current Station
Stazione meteo personale
Location: Lewisburg, PA
Altitudine: 545 ft
Stazioni meteo nelle vicinanze

Alt. 545 ft 40.94 °N, 76.89 °W | Updated 1 second ago

Parzialmente nuvoloso
Parzialmente nuvoloso
48.7 °F
Sembra 49 °F
N
0.0
Vento Variabile Vento da NNE
Gusts 0.0 mph

Oggi
Massima -- | Minima -- °F
--% Possibilità di precip.
Ieri
Massima -- | Minima -- °F
Precip. -- in
6:13 AM 7:57 PM
Luna crescente, 47% visible
Pressione 29.93 in
Visibilità 10.0 miglia
Nuvole Sereno
Raffreddamento del vento 49 °F
Punto di rugiada 24 °F
Umidità 37%
Piovosità -999.00 in
Spessore del manto nevoso Non disponibile.
Raggi UV 9 fuori da 12
Polline 7.10 fuori da 12
Qualità dell'aria Non disponibile.
Flu Activity Sporadic
METAR KSEG 251553Z AUTO VRB04KT 10SM CLR 09/M03 A2992 RMK AO2 SLP133 T00891033

More Conditions Fewer Conditions

Pressione 29.93 in
Visibilità 10.0 miglia
Nuvole Sereno
Raffreddamento del vento 49 °F
Punto di rugiada 24 °F
Umidità 37%
Piovosità -999.00 in
Spessore del manto nevoso Non disponibile.
Raggi UV 9 fuori da 12
Polline 7.10 fuori da 12
Qualità dell'aria Non disponibile.
Flu Activity Sporadic
METAR KSEG 251553Z AUTO VRB04KT 10SM CLR 09/M03 A2992 RMK AO2 SLP133 T00891033

More Conditions Fewer Conditions

10-Day Weather Forecast

Almanac

Astronomia

Apr. 25, 2015 Alba Tramonto
Ora attuale
Crepuscolo civile
Crepuscolo nautico
Crepuscolo astronomico
Luna
Estensione della luce visibile
Lunghezza del giorno
Tomorrow will be .
, % of the Moon is Illuminated

Gli estremi di oggi

State Highs State Lows

Community

WunderPhotos

Upload Photos

1,816,719 foto caricate!

WunderBlogs® & News

Nearby

Qualità dell'aria

  Qualità dell'aria Indice AQ Inquinante
Not available.

Profondità neve

Stazione Profondità Altitudine

Attività sismica

Città  Distanza Mag. Data & Ora
Minimo Magnitudo Mostrato è 2.5.

Temperature delle acque costiere

Località Temperatura

Stations

Stazioni meteo nelle vicinanze

Ubicazione della stazione Temp. Raffreddamento del vento Punto di rugiada Umidità Vento Precip. Alt. Aggiornato Tipo